createdAt,value
2023-05-19T00:01:21.832Z,82.13
2023-05-19T00:04:30.864Z,81.83
2023-05-19T00:07:38.905Z,81.44
2023-05-19T00:10:41.726Z,81.67
2023-05-19T00:13:49.744Z,80.77
2023-05-19T00:16:56.025Z,80.95
2023-05-19T00:20:01.558Z,82.59
2023-05-19T00:23:03.868Z,82.99
2023-05-19T00:26:06.677Z,82.80
2023-05-19T00:29:08.956Z,82.88
2023-05-19T00:32:11.580Z,82.82
2023-05-19T00:35:14.133Z,81.42
2023-05-19T00:38:19.497Z,82.41
2023-05-19T00:41:22.765Z,83.00
2023-05-19T00:44:25.298Z,81.78
2023-05-19T00:47:30.165Z,82.49
2023-05-19T00:50:35.473Z,83.08
2023-05-19T00:53:43.946Z,82.83
2023-05-19T00:56:46.368Z,82.65
2023-05-19T00:59:51.357Z,83.28
2023-05-19T01:02:57.144Z,84.33
2023-05-19T01:06:07.372Z,83.50
2023-05-19T01:09:12.345Z,83.93
2023-05-19T01:12:18.459Z,84.59
2023-05-19T01:15:21.024Z,84.52
2023-05-19T01:18:56.228Z,83.85
2023-05-19T01:22:14.922Z,84.49
2023-05-19T01:25:48.256Z,84.23
2023-05-19T01:29:28.088Z,83.86
2023-05-19T01:32:34.791Z,84.31
2023-05-19T01:35:45.882Z,85.09
2023-05-19T01:38:54.002Z,86.21
2023-05-19T01:41:58.205Z,85.93
2023-05-19T01:45:06.139Z,85.16
2023-05-19T01:48:12.082Z,85.22
2023-05-19T01:51:16.548Z,84.99
2023-05-19T01:54:19.034Z,86.48
2023-05-19T01:57:55.685Z,85.86
2023-05-19T02:01:16.993Z,86.22
2023-05-19T02:04:20.358Z,85.77
2023-05-19T02:07:35.657Z,86.59
2023-05-19T02:10:50.485Z,87.14
2023-05-19T02:13:58.161Z,86.56
2023-05-19T02:17:05.025Z,86.68
2023-05-19T02:20:12.295Z,85.22
2023-05-19T02:23:17.575Z,85.85
2023-05-19T02:26:19.876Z,85.91
2023-05-19T02:29:22.187Z,85.39
2023-05-19T02:32:28.218Z,86.00
2023-05-19T02:35:33.762Z,86.17
2023-05-19T02:38:36.365Z,86.38
2023-05-19T02:41:41.212Z,86.37
2023-05-19T02:44:48.660Z,85.87
2023-05-19T02:47:51.056Z,85.56
2023-05-19T02:50:59.399Z,86.25
2023-05-19T02:54:04.661Z,85.52
2023-05-19T02:57:07.142Z,86.04
2023-05-19T03:00:11.705Z,86.25
2023-05-19T03:03:14.989Z,86.29
2023-05-19T03:06:18.735Z,86.01
2023-05-19T03:09:23.438Z,86.03
2023-05-19T03:12:26.105Z,86.00
2023-05-19T03:15:34.368Z,86.49
2023-05-19T03:18:37.265Z,87.09
2023-05-19T03:21:39.578Z,86.11
2023-05-19T03:24:44.703Z,86.24
2023-05-19T03:27:51.816Z,85.74
2023-05-19T03:30:56.638Z,85.03
2023-05-19T03:34:03.545Z,85.59
2023-05-19T03:37:08.131Z,86.03
2023-05-19T03:40:15.567Z,86.06
2023-05-19T03:43:19.619Z,85.72
2023-05-19T03:46:30.534Z,86.34
2023-05-19T03:49:51.010Z,85.91
2023-05-19T03:53:16.520Z,86.20
2023-05-19T03:56:25.122Z,85.96
2023-05-19T03:59:29.788Z,86.36
2023-05-19T04:02:34.702Z,85.70
2023-05-19T04:05:37.064Z,84.86
2023-05-19T04:08:40.019Z,84.68
2023-05-19T04:11:43.116Z,84.55
2023-05-19T04:14:48.407Z,83.47
2023-05-19T04:17:50.779Z,83.25
2023-05-19T04:20:54.029Z,83.45
2023-05-19T04:23:56.430Z,82.59
2023-05-19T04:27:02.557Z,82.29
2023-05-19T04:30:06.932Z,82.60
2023-05-19T04:33:12.001Z,81.85
2023-05-19T04:36:14.562Z,80.66
2023-05-19T04:39:19.131Z,80.16
2023-05-19T04:42:21.873Z,79.96
2023-05-19T04:45:26.133Z,79.17
2023-05-19T04:48:31.416Z,78.77
2023-05-19T04:51:33.868Z,79.31
2023-05-19T04:54:38.654Z,77.27
2023-05-19T04:57:41.798Z,76.82
2023-05-19T05:00:47.092Z,75.83
2023-05-19T05:03:49.420Z,75.62
2023-05-19T05:06:54.411Z,76.45
2023-05-19T05:10:00.884Z,75.14
2023-05-19T05:13:06.317Z,75.55
2023-05-19T05:16:09.488Z,75.54
2023-05-19T05:19:14.599Z,74.43
2023-05-19T05:22:17.614Z,74.55
2023-05-19T05:25:20.656Z,74.75
2023-05-19T05:28:26.733Z,74.60
2023-05-19T05:31:34.762Z,74.64
2023-05-19T05:34:42.032Z,73.34
2023-05-19T05:37:49.461Z,72.28
2023-05-19T05:40:56.703Z,72.38
2023-05-19T05:43:59.229Z,73.36
2023-05-19T05:47:03.947Z,71.63
2023-05-19T05:50:10.069Z,71.62
2023-05-19T05:53:21.481Z,71.08
2023-05-19T05:56:30.795Z,72.18
2023-05-19T05:59:34.375Z,71.08
2023-05-19T06:02:39.054Z,70.15
2023-05-19T06:05:41.413Z,71.54
2023-05-19T06:08:44.841Z,70.57
2023-05-19T06:11:52.170Z,69.68
2023-05-19T06:14:54.720Z,69.87
2023-05-19T06:18:20.022Z,68.43
2023-05-19T06:21:26.060Z,68.24
2023-05-19T06:24:33.881Z,67.64
2023-05-19T06:27:36.304Z,66.82
2023-05-19T06:30:41.477Z,66.61
2023-05-19T06:34:04.692Z,65.46
2023-05-19T06:37:07.151Z,65.91
2023-05-19T06:40:11.371Z,64.78
2023-05-19T06:43:20.512Z,65.31
2023-05-19T06:46:33.560Z,63.61
2023-05-19T06:49:36.121Z,63.15
2023-05-19T06:52:38.477Z,64.19
2023-05-19T06:55:54.405Z,63.66
2023-05-19T06:59:02.058Z,61.17
2023-05-19T07:02:13.111Z,58.99
2023-05-19T07:05:15.643Z,57.40
2023-05-19T07:08:21.909Z,57.34
2023-05-19T07:11:24.729Z,57.43
2023-05-19T07:14:27.376Z,58.72
2023-05-19T07:17:29.877Z,58.07
2023-05-19T07:20:34.782Z,55.71
2023-05-19T07:23:39.465Z,53.31
2023-05-19T07:26:44.268Z,50.42
2023-05-19T07:29:46.664Z,48.11
2023-05-19T07:32:49.102Z,49.71
2023-05-19T07:35:51.392Z,47.61
2023-05-19T07:38:53.797Z,46.24
2023-05-19T07:41:56.169Z,45.64
2023-05-19T07:45:01.226Z,45.33
2023-05-19T07:48:04.168Z,47.47
2023-05-19T07:51:10.077Z,46.50
2023-05-19T07:54:12.415Z,46.97
2023-05-19T07:57:14.725Z,46.85
2023-05-19T08:00:21.943Z,45.95
2023-05-19T08:03:24.277Z,46.60
2023-05-19T08:06:30.115Z,45.63
2023-05-19T08:09:35.544Z,44.69
2023-05-19T08:12:37.863Z,42.32
2023-05-19T08:15:42.864Z,41.66
2023-05-19T08:18:45.166Z,40.85
2023-05-19T08:21:48.398Z,39.65
2023-05-19T08:24:51.823Z,38.72
2023-05-19T08:27:56.374Z,38.48
2023-05-19T08:30:58.757Z,40.13
2023-05-19T08:34:01.040Z,39.15
2023-05-19T08:37:03.644Z,39.03
2023-05-19T08:40:07.236Z,39.96
2023-05-19T08:43:12.921Z,40.85
2023-05-19T08:46:16.995Z,42.51
2023-05-19T08:49:28.498Z,43.67
2023-05-19T08:52:53.136Z,43.32
2023-05-19T08:56:04.714Z,41.91
2023-05-19T08:59:10.590Z,42.85
2023-05-19T09:02:16.508Z,41.90
2023-05-19T09:05:19.636Z,41.83
2023-05-19T09:08:22.674Z,40.24
2023-05-19T09:11:29.527Z,39.28
2023-05-19T09:14:34.808Z,43.16
2023-05-19T09:17:37.257Z,45.95
2023-05-19T09:20:41.506Z,47.84
2023-05-19T09:23:49.778Z,47.92
2023-05-19T09:26:58.010Z,49.46
2023-05-19T09:30:10.987Z,49.29
2023-05-19T09:33:17.201Z,50.70
2023-05-19T09:36:21.881Z,48.41
2023-05-19T09:39:29.009Z,49.29
2023-05-19T09:42:37.786Z,48.04
2023-05-19T09:45:40.081Z,49.68
2023-05-19T09:48:44.822Z,50.58
2023-05-19T09:51:52.901Z,49.64
2023-05-19T09:54:57.744Z,50.26
2023-05-19T09:58:01.226Z,49.61
2023-05-19T10:01:07.676Z,49.27
2023-05-19T10:04:10.306Z,48.06
2023-05-19T10:07:14.718Z,48.05
2023-05-19T10:10:20.030Z,49.20
2023-05-19T10:13:29.734Z,49.93
2023-05-19T10:16:32.753Z,48.90
2023-05-19T10:19:36.512Z,50.20
2023-05-19T10:22:39.646Z,50.57
2023-05-19T10:25:45.358Z,50.09
2023-05-19T10:28:50.961Z,49.22
2023-05-19T10:31:55.283Z,49.73
2023-05-19T10:35:07.514Z,48.72
2023-05-19T10:38:15.860Z,47.48
2023-05-19T10:41:40.042Z,48.50
2023-05-19T10:44:45.085Z,48.21
2023-05-19T10:47:47.453Z,48.13
2023-05-19T10:50:56.547Z,46.92
2023-05-19T10:54:02.822Z,47.68
2023-05-19T10:57:14.219Z,48.69
2023-05-19T11:00:31.823Z,48.60
2023-05-19T11:03:53.848Z,47.82
2023-05-19T11:06:57.824Z,47.94
2023-05-19T11:10:06.085Z,47.80
2023-05-19T11:13:23.113Z,48.95
2023-05-19T11:16:29.534Z,49.26
2023-05-19T11:19:37.137Z,47.80
2023-05-19T11:22:40.124Z,48.36
2023-05-19T11:25:44.738Z,49.03
2023-05-19T11:28:48.195Z,48.21
2023-05-19T11:31:53.111Z,48.67
2023-05-19T11:35:00.834Z,48.21
2023-05-19T11:38:07.235Z,47.04
2023-05-19T11:41:09.604Z,46.84
2023-05-19T11:44:12.200Z,47.92
2023-05-19T11:47:15.928Z,48.29
2023-05-19T11:50:22.997Z,47.63
2023-05-19T11:53:25.419Z,47.47
2023-05-19T11:56:30.008Z,47.50
2023-05-19T11:59:39.128Z,48.41
2023-05-19T12:02:44.084Z,47.81
2023-05-19T12:05:52.807Z,47.81
2023-05-19T12:08:55.530Z,48.59
2023-05-19T12:12:01.076Z,48.38
2023-05-19T12:15:04.111Z,48.64
2023-05-19T12:18:07.373Z,48.39
2023-05-19T12:21:12.180Z,48.31
2023-05-19T12:24:17.635Z,47.73
2023-05-19T12:27:20.842Z,47.63
2023-05-19T12:30:34.234Z,49.15
2023-05-19T12:33:39.586Z,48.58
2023-05-19T12:36:44.508Z,49.08
2023-05-19T12:39:50.790Z,49.31
2023-05-19T12:42:59.245Z,49.04
2023-05-19T12:46:13.550Z,48.96
2023-05-19T12:49:18.276Z,49.23
2023-05-19T12:52:24.094Z,49.11
2023-05-19T12:55:26.541Z,48.15
2023-05-19T12:58:28.898Z,47.85
2023-05-19T13:01:31.750Z,48.24
2023-05-19T13:04:36.650Z,48.71
2023-05-19T13:07:38.938Z,49.83
2023-05-19T13:10:44.634Z,49.49
2023-05-19T13:13:51.875Z,50.21
2023-05-19T13:16:54.267Z,49.22
2023-05-19T13:19:59.135Z,48.76
2023-05-19T13:23:06.677Z,49.08
2023-05-19T13:26:13.680Z,48.76
2023-05-19T13:29:16.030Z,49.00
2023-05-19T13:32:20.600Z,48.08
2023-05-19T13:35:23.051Z,48.17
2023-05-19T13:38:25.393Z,47.55
2023-05-19T13:41:30.203Z,48.21
2023-05-19T13:44:32.890Z,47.40
2023-05-19T13:47:38.804Z,48.05
2023-05-19T13:50:41.100Z,47.77
2023-05-19T13:53:43.496Z,47.20
2023-05-19T13:56:48.850Z,47.31
2023-05-19T14:00:02.018Z,47.26
2023-05-19T14:03:16.326Z,47.24
2023-05-19T14:06:20.995Z,47.29
2023-05-19T14:09:26.955Z,46.95
2023-05-19T14:12:41.384Z,45.95
2023-05-19T14:15:49.752Z,45.18
2023-05-19T14:18:52.268Z,45.15
2023-05-19T14:21:56.803Z,45.32
2023-05-19T14:25:00.493Z,45.04
2023-05-19T14:28:05.148Z,45.95
2023-05-19T14:31:14.821Z,46.01
2023-05-19T14:34:21.206Z,45.36
2023-05-19T14:37:28.961Z,45.00
2023-05-19T14:40:31.644Z,45.07
2023-05-19T14:43:34.104Z,45.38
2023-05-19T14:46:38.903Z,45.26
2023-05-19T14:49:41.244Z,44.88
2023-05-19T14:52:46.022Z,44.28
2023-05-19T14:55:49.579Z,43.89
2023-05-19T14:58:55.664Z,43.89
2023-05-19T15:02:02.750Z,45.79
2023-05-19T15:05:08.093Z,46.71
2023-05-19T15:08:10.463Z,46.83
2023-05-19T15:11:12.891Z,46.34
2023-05-19T15:14:18.686Z,46.46
2023-05-19T15:17:23.378Z,43.51
2023-05-19T15:20:27.448Z,44.75
2023-05-19T15:23:36.437Z,44.85
2023-05-19T15:26:41.149Z,44.66
2023-05-19T15:29:43.690Z,44.55
2023-05-19T15:32:46.003Z,44.28
2023-05-19T15:35:51.694Z,44.13
2023-05-19T15:38:54.094Z,44.51
2023-05-19T15:41:56.440Z,44.92
2023-05-19T15:45:05.391Z,44.77
2023-05-19T15:48:08.189Z,45.20
2023-05-19T15:51:13.056Z,45.26
2023-05-19T15:54:15.465Z,45.29
2023-05-19T15:57:20.926Z,45.43
2023-05-19T16:00:25.475Z,45.32
2023-05-19T16:03:27.877Z,45.69
2023-05-19T16:06:34.951Z,45.74
2023-05-19T16:09:37.286Z,45.54
2023-05-19T16:12:43.971Z,46.10
2023-05-19T16:15:46.297Z,46.10
2023-05-19T16:18:48.684Z,45.98
2023-05-19T16:21:53.391Z,45.74
2023-05-19T16:24:55.788Z,45.51
2023-05-19T16:27:58.155Z,45.38
2023-05-19T16:31:02.914Z,46.69
2023-05-19T16:34:05.215Z,47.42
2023-05-19T16:37:09.943Z,46.85
2023-05-19T16:40:15.082Z,46.92
2023-05-19T16:43:19.691Z,46.98
2023-05-19T16:46:24.650Z,47.52
2023-05-19T16:49:27.016Z,47.20
2023-05-19T16:52:29.355Z,47.69
2023-05-19T16:55:32.759Z,47.87
2023-05-19T16:58:35.507Z,48.29
2023-05-19T17:01:40.130Z,47.53
2023-05-19T17:04:44.959Z,48.09
2023-05-19T17:07:49.724Z,47.77
2023-05-19T17:10:52.037Z,48.26
2023-05-19T17:13:54.417Z,48.53
2023-05-19T17:16:59.279Z,49.09
2023-05-19T17:20:02.113Z,49.78
2023-05-19T17:23:06.995Z,50.20
2023-05-19T17:26:14.452Z,49.71
2023-05-19T17:29:16.645Z,50.35
2023-05-19T17:32:25.881Z,50.28
2023-05-19T17:35:28.665Z,50.59
2023-05-19T17:38:40.115Z,50.44
2023-05-19T17:41:45.225Z,50.80
2023-05-19T17:44:49.704Z,51.33
2023-05-19T17:47:54.188Z,51.74
2023-05-19T17:50:56.899Z,52.16
2023-05-19T17:53:59.829Z,52.54
2023-05-19T17:57:12.950Z,52.79
2023-05-19T18:00:17.663Z,53.19
2023-05-19T18:03:23.595Z,53.44
2023-05-19T18:06:28.172Z,53.85
2023-05-19T18:09:36.186Z,53.90
2023-05-19T18:12:38.821Z,54.02
2023-05-19T18:15:43.457Z,53.97
2023-05-19T18:18:50.645Z,53.94
2023-05-19T18:21:53.237Z,53.47
2023-05-19T18:24:58.106Z,53.58
2023-05-19T18:28:05.762Z,53.66
2023-05-19T18:31:17.575Z,53.95
2023-05-19T18:34:25.577Z,54.05
2023-05-19T18:37:28.634Z,54.29
2023-05-19T18:40:33.444Z,54.68
2023-05-19T18:43:36.150Z,56.99
2023-05-19T18:46:38.403Z,56.48
2023-05-19T18:49:43.211Z,55.38
2023-05-19T18:52:50.376Z,57.88
2023-05-19T18:55:53.363Z,58.30
2023-05-19T18:58:55.674Z,58.64
2023-05-19T19:02:00.744Z,57.61
2023-05-19T19:05:04.092Z,59.04
2023-05-19T19:08:11.469Z,59.85
2023-05-19T19:11:16.243Z,60.95
2023-05-19T19:14:19.410Z,61.37
2023-05-19T19:17:21.815Z,61.14
2023-05-19T19:20:24.267Z,61.67
2023-05-19T19:23:27.544Z,62.20
2023-05-19T19:26:34.634Z,63.25
2023-05-19T19:29:41.470Z,62.93
2023-05-19T19:32:43.902Z,63.37
2023-05-19T19:35:49.122Z,63.84
2023-05-19T19:38:51.883Z,63.53
2023-05-19T19:41:57.275Z,63.86
2023-05-19T19:45:02.227Z,63.84
2023-05-19T19:48:09.469Z,63.29
2023-05-19T19:51:16.790Z,62.58
2023-05-19T19:54:19.092Z,62.97
2023-05-19T19:57:21.455Z,62.71
2023-05-19T20:00:26.197Z,62.87
2023-05-19T20:03:29.768Z,63.12
2023-05-19T20:06:33.280Z,63.61
2023-05-19T20:09:35.623Z,64.28
2023-05-19T20:12:38.282Z,65.02
2023-05-19T20:15:43.905Z,66.51
2023-05-19T20:18:48.480Z,66.54
2023-05-19T20:21:53.673Z,66.38
2023-05-19T20:24:55.922Z,67.38
2023-05-19T20:28:02.080Z,67.61
2023-05-19T20:31:05.191Z,67.99
2023-05-19T20:34:07.494Z,67.81
2023-05-19T20:37:13.808Z,68.31
2023-05-19T20:40:18.719Z,68.36
2023-05-19T20:43:21.315Z,68.43
2023-05-19T20:46:28.613Z,68.71
2023-05-19T20:49:31.224Z,68.39
2023-05-19T20:52:36.037Z,69.13
2023-05-19T20:55:42.254Z,68.79
2023-05-19T20:58:44.506Z,69.02
2023-05-19T21:01:47.453Z,68.98
2023-05-19T21:04:52.403Z,68.77
2023-05-19T21:07:54.784Z,69.71
2023-05-19T21:10:59.446Z,69.79
2023-05-19T21:14:04.291Z,69.80
2023-05-19T21:17:07.446Z,69.56
2023-05-19T21:20:13.381Z,70.45
2023-05-19T21:23:15.771Z,69.71
2023-05-19T21:26:18.175Z,69.77
2023-05-19T21:29:23.080Z,70.46
2023-05-19T21:32:25.840Z,70.73
2023-05-19T21:35:30.560Z,70.83
2023-05-19T21:38:33.013Z,70.73
2023-05-19T21:41:35.569Z,71.42
2023-05-19T21:44:40.179Z,71.08
2023-05-19T21:47:42.530Z,71.61
2023-05-19T21:50:52.592Z,71.33
2023-05-19T21:53:54.932Z,72.34
2023-05-19T21:56:57.360Z,71.87
2023-05-19T21:59:59.734Z,71.26
2023-05-19T22:03:02.445Z,71.93
2023-05-19T22:06:06.528Z,71.64
2023-05-19T22:09:11.631Z,71.39
2023-05-19T22:12:16.408Z,71.80
2023-05-19T22:15:21.063Z,72.29
2023-05-19T22:18:25.813Z,72.35
2023-05-19T22:21:28.153Z,72.49
2023-05-19T22:24:35.536Z,72.47
2023-05-19T22:27:38.186Z,72.26
2023-05-19T22:30:42.179Z,72.86
2023-05-19T22:33:44.880Z,72.89
2023-05-19T22:36:47.343Z,72.80
2023-05-19T22:39:51.961Z,72.75
2023-05-19T22:42:56.515Z,73.16
2023-05-19T22:45:58.873Z,73.45
2023-05-19T22:49:01.216Z,74.26
2023-05-19T22:52:06.203Z,74.25
2023-05-19T22:55:11.076Z,74.69
2023-05-19T22:58:13.626Z,75.31
2023-05-19T23:01:18.849Z,75.23
2023-05-19T23:04:21.675Z,75.21
2023-05-19T23:07:24.021Z,75.39
2023-05-19T23:10:26.374Z,75.03
2023-05-19T23:13:31.686Z,75.37
2023-05-19T23:16:34.031Z,75.33
2023-05-19T23:19:39.462Z,75.12
2023-05-19T23:22:41.817Z,75.18
2023-05-19T23:25:44.106Z,75.17
2023-05-19T23:28:48.809Z,74.86
2023-05-19T23:31:51.450Z,75.47
2023-05-19T23:34:56.107Z,74.87
2023-05-19T23:38:03.173Z,75.95
2023-05-19T23:41:05.838Z,76.33
2023-05-19T23:44:08.623Z,76.16
2023-05-19T23:47:11.001Z,76.36
2023-05-19T23:50:13.329Z,76.25
2023-05-19T23:53:18.006Z,76.54
2023-05-19T23:56:22.606Z,76.42
2023-05-19T23:59:29.870Z,76.97
